Time;durP1;ratioP1;P1;durP2;ratioP2;P2;SDS_P1;SDS_P2;PMS_P1;PMS_P2;Temp;Humidity;BMP_temperature;BMP_pressure;BME280_temperature;BME280_humidity;BME280_pressure;Samples;Min_cycle;Max_cycle;Signal;HPM_P1;HPM_P2
2022/07/25 00:01:03;;;;;;;8.60;4.45;;;21.80;96.80;;;;;;4667924;30;20423;-82
2022/07/25 00:03:29;;;;;;;10.30;5.00;;;;;;;;;;4667865;30;20399;-82
2022/07/25 00:05:55;;;;;;;9.75;5.00;;;21.90;96.30;;;;;;4667939;30;20034;-82
2022/07/25 00:08:21;;;;;;;8.88;4.70;;;21.80;96.90;;;;;;4667596;30;20541;-82
2022/07/25 00:10:47;;;;;;;8.43;4.88;;;21.70;97.00;;;;;;4667788;30;20038;-83
2022/07/25 00:13:12;;;;;;;10.50;5.28;;;21.60;97.00;;;;;;4668057;30;20036;-82
2022/07/25 00:15:38;;;;;;;10.20;4.93;;;21.60;97.20;;;;;;4667929;30;20345;-81
2022/07/25 00:18:04;;;;;;;10.93;5.07;;;21.60;97.30;;;;;;4667724;30;20400;-82
2022/07/25 00:20:30;;;;;;;9.85;4.72;;;21.50;97.60;;;;;;4668190;30;20400;-82
2022/07/25 00:22:55;;;;;;;9.93;5.22;;;21.50;97.40;;;;;;4667931;30;20041;-82
2022/07/25 00:25:21;;;;;;;11.50;5.50;;;21.50;97.40;;;;;;4667706;30;20452;-84
2022/07/25 00:27:47;;;;;;;11.77;4.95;;;21.40;97.60;;;;;;4667378;30;20416;-83
2022/07/25 00:30:13;;;;;;;9.98;5.00;;;21.40;97.60;;;;;;4667731;30;20346;-81
2022/07/25 00:32:38;;;;;;;14.68;5.60;;;21.40;97.80;;;;;;4667624;30;20030;-82
2022/07/25 00:35:04;;;;;;;11.55;5.00;;;21.40;97.80;;;;;;4667428;30;20064;-84
2022/07/25 00:37:30;;;;;;;10.40;4.45;;;21.30;97.80;;;;;;4666001;30;20713;-81
2022/07/25 00:39:56;;;;;;;10.60;5.43;;;21.30;97.90;;;;;;4666361;30;20068;-81
2022/07/25 00:42:23;;;;;;;11.25;5.35;;;21.10;98.10;;;;;;4667759;30;20254;-79
2022/07/25 00:44:50;;;;;;;10.18;5.53;;;21.20;98.30;;;;;;4667641;30;20095;-80
2022/07/25 00:47:15;;;;;;;11.30;5.05;;;21.10;98.30;;;;;;4667618;30;20114;-83
2022/07/25 00:49:41;;;;;;;9.00;5.07;;;21.10;98.30;;;;;;4666345;30;20643;-80
2022/07/25 00:52:08;;;;;;;10.32;4.65;;;21.60;98.50;;;;;;4667544;30;20543;-81
2022/07/25 00:54:34;;;;;;;12.30;5.10;;;21.00;98.60;;;;;;4665963;30;20152;-82
2022/07/25 00:57:00;;;;;;;9.60;4.65;;;21.00;98.60;;;;;;4666293;30;20134;-81
2022/07/25 00:59:25;;;;;;;11.48;5.07;;;21.00;98.50;;;;;;4667338;30;20052;-81
2022/07/25 01:01:52;;;;;;;8.73;4.80;;;20.90;98.70;;;;;;4667402;30;20601;-81
2022/07/25 01:04:18;;;;;;;11.07;5.22;;;20.90;98.70;;;;;;4667426;30;20041;-82
2022/07/25 01:06:44;;;;;;;11.68;5.32;;;20.80;98.80;;;;;;4667658;30;20121;-80
2022/07/25 01:09:10;;;;;;;11.13;5.13;;;20.80;99.00;;;;;;4667260;30;20462;-81
2022/07/25 01:11:36;;;;;;;11.63;5.43;;;20.70;99.00;;;;;;4667518;30;20129;-81
2022/07/25 01:14:02;;;;;;;10.57;5.03;;;20.70;99.40;;;;;;4667284;30;20626;-81
2022/07/25 01:16:27;;;;;;;8.60;4.68;;;20.60;99.10;;;;;;4667519;30;20049;-82
2022/07/25 01:18:53;;;;;;;10.23;5.30;;;20.50;99.40;;;;;;4667287;30;20283;-80
2022/07/25 01:21:19;;;;;;;13.90;5.10;;;20.50;99.60;;;;;;4667883;30;20371;-82
2022/07/25 01:23:45;;;;;;;12.48;5.63;;;20.40;99.50;;;;;;4667839;30;20042;-81
2022/07/25 01:26:11;;;;;;;10.43;5.55;;;20.40;99.70;;;;;;4667650;30;20435;-81
2022/07/25 01:28:37;;;;;;;10.48;5.10;;;20.50;99.90;;;;;;4666739;30;20584;-81
2022/07/25 01:31:03;;;;;;;11.48;5.45;;;20.70;99.90;;;;;;4670699;30;20044;-81
2022/07/25 01:33:29;;;;;;;10.50;4.75;;;;;;;;;;4670691;30;20227;-82
2022/07/25 01:35:54;;;;;;;10.02;5.20;;;20.30;99.60;;;;;;4670573;30;20511;-82
2022/07/25 01:38:20;;;;;;;12.85;5.53;;;20.30;99.90;;;;;;4669186;30;20342;-81
2022/07/25 01:40:46;;;;;;;10.95;4.72;;;20.30;99.90;;;;;;4670537;30;20050;-81
2022/07/25 01:43:13;;;;;;;9.90;5.13;;;20.30;99.90;;;;;;4670375;30;20042;-81
2022/07/25 01:45:38;;;;;;;11.93;5.65;;;20.30;99.90;;;;;;4670377;30;20390;-82
2022/07/25 01:48:04;;;;;;;10.07;5.15;;;20.40;99.80;;;;;;4670329;30;20418;-82
2022/07/25 01:50:30;;;;;;;11.40;5.65;;;20.30;99.80;;;;;;4670269;30;20121;-82
2022/07/25 01:52:57;;;;;;;9.65;4.70;;;20.30;99.90;;;;;;4669954;30;20034;-82
2022/07/25 01:55:22;;;;;;;10.85;4.70;;;20.10;99.90;;;;;;4670183;30;20034;-81
2022/07/25 01:57:48;;;;;;;10.27;5.00;;;20.10;99.90;;;;;;4670437;30;20030;-81
2022/07/25 02:00:15;;;;;;;10.68;5.05;;;20.10;99.90;;;;;;4675207;30;20040;-81
2022/07/25 02:02:42;;;;;;;10.35;5.50;;;19.90;99.90;;;;;;4675103;30;20030;-82
2022/07/25 02:05:10;;;;;;;9.65;5.10;;;19.90;99.90;;;;;;4674802;30;20041;-82
2022/07/25 02:07:36;;;;;;;11.23;5.45;;;19.70;99.90;;;;;;4675660;30;20160;-82
2022/07/25 02:10:04;;;;;;;13.52;5.72;;;19.80;99.90;;;;;;4672236;30;20446;-81
2022/07/25 02:12:29;;;;;;;10.52;5.55;;;19.70;99.90;;;;;;4670226;30;20193;-83
2022/07/25 02:14:55;;;;;;;9.05;4.85;;;19.70;99.90;;;;;;4670509;30;20117;-83
2022/07/25 02:17:21;;;;;;;10.27;5.18;;;19.60;99.90;;;;;;4670267;30;20064;-83
2022/07/25 02:19:47;;;;;;;20.33;5.55;;;19.60;99.90;;;;;;4668815;30;20295;-82
2022/07/25 02:22:13;;;;;;;11.27;5.40;;;19.60;99.90;;;;;;4669694;30;20308;-82
2022/07/25 02:24:39;;;;;;;9.77;5.47;;;;;;;;;;4668393;30;20031;-81
2022/07/25 02:27:05;;;;;;;11.93;5.60;;;19.50;99.90;;;;;;4669412;30;20061;-80
2022/07/25 02:29:31;;;;;;;11.60;5.55;;;19.60;99.90;;;;;;4669919;30;20048;-82
2022/07/25 02:31:57;;;;;;;10.63;4.88;;;19.40;99.90;;;;;;4669841;30;20549;-82
2022/07/25 02:34:23;;;;;;;12.80;5.85;;;19.40;99.90;;;;;;4668073;30;20425;-81
2022/07/25 02:36:49;;;;;;;9.95;5.18;;;19.40;99.90;;;;;;4669373;30;20044;-81
2022/07/25 02:39:15;;;;;;;7.82;4.63;;;19.40;99.90;;;;;;4669364;30;20046;-82
2022/07/25 02:41:42;;;;;;;18.48;6.22;;;19.40;99.90;;;;;;4668573;30;20258;-83
2022/07/25 02:44:07;;;;;;;10.55;5.38;;;19.20;99.90;;;;;;4669844;30;20046;-82
2022/07/25 02:46:33;;;;;;;13.70;5.22;;;19.20;99.90;;;;;;4668163;30;20116;-81
2022/07/25 02:48:59;;;;;;;9.65;5.20;;;19.20;99.90;;;;;;4667689;30;20635;-82
2022/07/25 02:51:25;;;;;;;10.10;4.93;;;17.40;99.90;;;;;;4667846;30;20038;-83
2022/07/25 02:53:51;;;;;;;11.02;5.47;;;19.20;99.90;;;;;;4669254;30;20498;-83
2022/07/25 02:56:17;;;;;;;12.95;6.38;;;18.80;99.90;;;;;;4669133;30;20034;-81
2022/07/25 02:58:42;;;;;;;13.10;6.63;;;19.10;99.90;;;;;;4669043;30;20112;-81
2022/07/25 03:01:08;;;;;;;11.10;5.88;;;19.00;99.90;;;;;;4669118;30;20070;-82
2022/07/25 03:03:34;;;;;;;10.68;5.50;;;19.00;99.90;;;;;;4669442;30;20460;-81
2022/07/25 03:06:00;;;;;;;9.77;5.45;;;19.00;99.90;;;;;;4669459;30;20042;-82
2022/07/25 03:08:27;;;;;;;11.93;5.60;;;;;;;;;;4668942;30;20058;-80
2022/07/25 03:10:53;;;;;;;12.40;6.07;;;19.00;99.90;;;;;;4668924;30;20030;-83
2022/07/25 03:13:19;;;;;;;9.75;5.28;;;19.00;99.90;;;;;;4667612;30;20393;-83
2022/07/25 03:15:45;;;;;;;11.95;6.35;;;;;;;;;;4667325;30;20046;-82
2022/07/25 03:18:11;;;;;;;11.77;6.25;;;18.80;99.90;;;;;;4668670;30;20074;-82
2022/07/25 03:20:36;;;;;;;10.55;5.22;;;18.90;99.90;;;;;;4667466;30;20084;-81
2022/07/25 03:23:02;;;;;;;11.85;5.95;;;18.80;99.90;;;;;;4668550;30;20511;-81
2022/07/25 03:25:28;;;;;;;10.88;5.90;;;18.80;99.90;;;;;;4668877;30;20711;-82
2022/07/25 03:27:55;;;;;;;15.27;6.65;;;18.70;99.90;;;;;;4667313;30;20060;-83
2022/07/25 03:30:21;;;;;;;13.07;6.85;;;;;;;;;;4667241;30;20137;-81
2022/07/25 03:32:47;;;;;;;10.95;5.80;;;18.70;99.90;;;;;;4667108;30;20338;-81
2022/07/25 03:35:14;;;;;;;11.75;5.95;;;18.60;99.90;;;;;;4669020;30;20042;-79
2022/07/25 03:37:40;;;;;;;11.60;5.75;;;18.60;99.90;;;;;;4667076;30;20034;-81
2022/07/25 03:40:06;;;;;;;12.73;6.15;;;18.60;99.90;;;;;;4668470;30;20060;-80
2022/07/25 03:42:32;;;;;;;12.73;5.78;;;18.60;99.90;;;;;;4667300;30;20077;-80
2022/07/25 03:44:58;;;;;;;9.98;5.78;;;18.60;99.90;;;;;;4666977;30;20069;-78
2022/07/25 03:47:24;;;;;;;11.18;5.43;;;18.50;99.90;;;;;;4668266;30;20050;-83
2022/07/25 03:49:50;;;;;;;11.18;5.60;;;18.70;99.90;;;;;;4667034;30;20112;-79
2022/07/25 03:52:15;;;;;;;10.68;5.18;;;18.60;99.90;;;;;;4666104;30;20054;-80
2022/07/25 03:54:41;;;;;;;11.00;5.65;;;17.90;99.90;;;;;;4667134;30;20045;-80
2022/07/25 03:57:07;;;;;;;13.60;6.35;;;18.40;99.90;;;;;;4668210;30;20437;-81
2022/07/25 03:59:33;;;;;;;11.38;6.00;;;18.50;99.90;;;;;;4668717;30;20360;-81
2022/07/25 04:02:01;;;;;;;9.82;5.75;;;18.50;99.90;;;;;;4668403;30;20351;-81
2022/07/25 04:04:27;;;;;;;11.68;5.68;;;19.20;99.90;;;;;;4668061;30;20100;-81
2022/07/25 04:06:53;;;;;;;10.18;5.80;;;18.50;99.90;;;;;;4668070;30;20037;-81
2022/07/25 04:09:19;;;;;;;11.27;5.97;;;18.50;99.90;;;;;;4667770;30;20088;-82
2022/07/25 04:11:44;;;;;;;11.38;5.85;;;18.50;99.90;;;;;;4668005;30;20041;-81
2022/07/25 04:14:10;;;;;;;13.35;5.78;;;18.60;99.90;;;;;;4666575;30;20038;-81
2022/07/25 04:16:36;;;;;;;11.45;5.00;;;18.60;99.90;;;;;;4667589;30;20050;-80
2022/07/25 04:19:03;;;;;;;9.70;5.13;;;18.50;99.90;;;;;;4667914;30;20042;-81
2022/07/25 04:21:29;;;;;;;8.52;4.88;;;18.50;99.90;;;;;;4667817;30;20514;-81
2022/07/25 04:23:55;;;;;;;12.30;5.60;;;18.60;99.90;;;;;;4666387;30;20527;-81
2022/07/25 04:26:21;;;;;;;12.07;5.57;;;18.60;99.90;;;;;;4666372;30;20479;-80
2022/07/25 04:28:46;;;;;;;10.10;5.47;;;18.60;99.90;;;;;;4667595;30;20262;-81
2022/07/25 04:31:12;;;;;;;11.50;6.13;;;18.70;99.90;;;;;;4667712;30;20038;-81
2022/07/25 04:33:39;;;;;;;10.93;5.65;;;18.70;99.90;;;;;;4667592;30;20084;-81
2022/07/25 04:36:08;;;;;;;12.48;5.55;;;18.70;99.90;;;;;;4666351;30;20038;-81
2022/07/25 04:38:34;;;;;;;11.10;5.45;;;18.80;99.90;;;;;;4667280;30;20058;-80
2022/07/25 04:41:01;;;;;;;12.18;6.00;;;20.00;99.90;;;;;;4666323;30;20077;-82
2022/07/25 04:43:26;;;;;;;11.75;6.03;;;18.90;99.90;;;;;;4667602;30;20546;-82
2022/07/25 04:45:52;;;;;;;12.15;5.68;;;19.00;99.90;;;;;;4667588;30;20264;-83
2022/07/25 04:48:18;;;;;;;12.25;5.85;;;19.10;99.90;;;;;;4667549;30;20053;-82
2022/07/25 04:50:44;;;;;;;10.50;6.32;;;19.20;99.90;;;;;;4667642;30;20038;-82
2022/07/25 04:53:10;;;;;;;15.93;7.15;;;19.20;99.90;;;;;;4667588;30;20042;-81
2022/07/25 04:55:37;;;;;;;13.27;6.20;;;19.30;99.90;;;;;;4667211;30;20114;-82
2022/07/25 04:58:04;;;;;;;10.57;5.45;;;19.40;99.90;;;;;;4666547;30;20049;-81
2022/07/25 05:00:31;;;;;;;12.93;6.90;;;19.40;99.90;;;;;;4666253;30;20045;-83
2022/07/25 05:02:57;;;;;;;12.00;5.93;;;19.40;99.90;;;;;;4668017;30;20038;-82
2022/07/25 05:05:23;;;;;;;14.48;7.03;;;19.50;99.90;;;;;;4670425;30;20042;-82
2022/07/25 05:07:50;;;;;;;12.52;6.13;;;19.50;99.90;;;;;;4671032;30;20049;-81
2022/07/25 05:10:16;;;;;;;11.60;5.55;;;19.70;99.90;;;;;;4669322;30;20058;-82
2022/07/25 05:12:42;;;;;;;12.25;5.13;;;19.70;99.90;;;;;;4671056;30;20038;-81
2022/07/25 05:15:08;;;;;;;16.00;6.78;;;19.80;99.90;;;;;;4670887;30;20030;-83
2022/07/25 05:17:34;;;;;;;14.52;7.43;;;19.90;99.90;;;;;;4670855;30;20037;-83
2022/07/25 05:20:00;;;;;;;23.80;10.77;;;20.00;99.90;;;;;;4671005;30;20068;-82
2022/07/25 05:22:25;;;;;;;26.88;12.32;;;20.10;99.90;;;;;;4671120;30;20112;-81
2022/07/25 05:24:51;;;;;;;21.35;9.32;;;19.50;99.90;;;;;;4670978;30;20375;-81
2022/07/25 05:27:17;;;;;;;18.58;9.18;;;20.40;99.90;;;;;;4669123;30;20179;-81
2022/07/25 05:29:43;;;;;;;19.15;8.00;;;20.50;99.90;;;;;;4671215;30;20062;-81
2022/07/25 05:32:08;;;;;;;15.55;8.57;;;20.60;99.90;;;;;;4669592;30;20205;-81
2022/07/25 05:34:34;;;;;;;14.20;6.75;;;20.60;99.90;;;;;;4669248;30;20246;-81
2022/07/25 05:37:00;;;;;;;15.45;6.43;;;20.80;99.70;;;;;;4670988;30;20049;-81
2022/07/25 05:39:26;;;;;;;12.95;6.30;;;20.90;99.40;;;;;;4670549;30;20050;-81
2022/07/25 05:41:52;;;;;;;14.20;7.70;;;;;;;;;;4670865;30;20101;-82
2022/07/25 05:44:18;;;;;;;17.73;6.10;;;21.00;98.70;;;;;;4669229;30;20042;-81
2022/07/25 05:46:43;;;;;;;16.08;6.68;;;21.10;98.80;;;;;;4670274;30;20050;-82
2022/07/25 05:49:10;;;;;;;13.95;6.68;;;21.20;98.60;;;;;;4670509;30;20034;-81
2022/07/25 05:51:38;;;;;;;13.32;6.72;;;21.00;98.60;;;;;;4670580;30;20053;-82
2022/07/25 05:54:04;;;;;;;16.30;7.00;;;21.50;98.80;;;;;;4670181;30;20451;-82
2022/07/25 05:56:30;;;;;;;13.18;7.07;;;21.60;98.40;;;;;;4669342;30;20046;-82
2022/07/25 05:58:56;;;;;;;16.95;7.53;;;21.70;98.40;;;;;;4676044;30;20558;-81
2022/07/25 06:01:22;;;;;;;13.07;7.55;;;21.70;98.40;;;;;;4675681;30;20141;-81
2022/07/25 06:03:47;;;;;;;14.40;7.85;;;21.80;98.50;;;;;;4673320;30;20581;-81
2022/07/25 06:06:13;;;;;;;13.48;7.43;;;21.70;98.10;;;;;;4671324;30;20491;-83
2022/07/25 06:08:39;;;;;;;19.30;8.25;;;21.80;98.00;;;;;;4670236;30;20331;-80
2022/07/25 06:11:06;;;;;;;13.18;6.97;;;21.80;98.10;;;;;;4670167;30;20242;-81
2022/07/25 06:13:32;;;;;;;14.30;7.93;;;21.90;98.00;;;;;;4670579;30;20074;-81
2022/07/25 06:15:58;;;;;;;13.55;6.35;;;22.10;97.80;;;;;;4669981;30;20351;-83
2022/07/25 06:18:25;;;;;;;13.38;7.88;;;22.20;97.80;;;;;;4668469;30;20212;-82
2022/07/25 06:20:51;;;;;;;16.35;8.77;;;22.40;97.30;;;;;;4667863;30;20129;-81
2022/07/25 06:23:17;;;;;;;15.88;8.40;;;22.50;97.20;;;;;;4669789;30;20192;-81
2022/07/25 06:25:43;;;;;;;15.90;8.88;;;22.60;97.10;;;;;;4669398;30;20045;-82
2022/07/25 06:28:09;;;;;;;14.73;8.27;;;22.70;97.40;;;;;;4669518;30;20050;-81
2022/07/25 06:30:35;;;;;;;14.45;7.82;;;23.90;97.60;;;;;;4669594;30;20641;-83
2022/07/25 06:33:01;;;;;;;12.95;7.30;;;23.00;97.20;;;;;;4669443;30;20048;-82
2022/07/25 06:35:26;;;;;;;16.80;9.57;;;23.00;97.00;;;;;;4669411;30;20518;-82
2022/07/25 06:37:52;;;;;;;14.30;8.18;;;22.90;97.10;;;;;;4668982;30;20057;-81
2022/07/25 06:40:18;;;;;;;15.73;8.98;;;23.10;97.00;;;;;;4668912;30;20125;-80
2022/07/25 06:42:46;;;;;;;13.68;8.40;;;23.30;96.50;;;;;;4667842;30;20254;-81
2022/07/25 06:45:13;;;;;;;13.18;7.35;;;23.40;96.60;;;;;;4667761;30;20377;-80
2022/07/25 06:47:40;;;;;;;14.70;8.13;;;23.60;96.20;;;;;;4668923;30;20616;-82
2022/07/25 06:50:08;;;;;;;14.18;7.80;;;23.60;95.90;;;;;;4668727;30;20378;-80
2022/07/25 06:52:34;;;;;;;16.77;8.73;;;23.80;95.70;;;;;;4669006;30;20038;-81
2022/07/25 06:55:00;;;;;;;16.70;8.65;;;23.80;95.60;;;;;;4668773;30;20377;-82
2022/07/25 06:57:26;;;;;;;13.27;7.40;;;23.90;95.40;;;;;;4668981;30;20045;-82
2022/07/25 06:59:52;;;;;;;14.13;7.25;;;24.10;95.30;;;;;;4667286;30;20306;-82
2022/07/25 07:02:18;;;;;;;13.77;8.05;;;24.20;95.10;;;;;;4668649;30;20258;-81
2022/07/25 07:04:44;;;;;;;12.13;7.65;;;24.30;95.00;;;;;;4668826;30;20057;-82
2022/07/25 07:07:09;;;;;;;15.48;8.30;;;24.40;94.70;;;;;;4668756;30;20054;-82
2022/07/25 07:09:35;;;;;;;14.60;7.95;;;24.50;94.60;;;;;;4666997;30;20069;-82
2022/07/25 07:12:01;;;;;;;14.43;8.63;;;24.50;94.80;;;;;;4668679;30;20053;-81
2022/07/25 07:14:27;;;;;;;14.65;8.43;;;24.60;94.40;;;;;;4668597;30;20499;-81
2022/07/25 07:16:53;;;;;;;15.50;8.40;;;24.70;94.30;;;;;;4668499;30;20117;-81
2022/07/25 07:19:18;;;;;;;15.88;9.85;;;24.70;94.30;;;;;;4668357;30;20049;-80
2022/07/25 07:21:44;;;;;;;13.75;7.63;;;24.60;94.30;;;;;;4667296;30;20456;-81
2022/07/25 07:24:10;;;;;;;15.82;8.60;;;24.80;94.00;;;;;;4667213;30;20060;-80
2022/07/25 07:26:36;;;;;;;14.82;9.30;;;25.00;93.80;;;;;;4667731;30;20054;-81
2022/07/25 07:29:03;;;;;;;13.52;7.57;;;25.00;94.00;;;;;;4668442;30;20041;-81
2022/07/25 07:31:29;;;;;;;17.33;8.85;;;25.20;93.70;;;;;;4668057;30;20175;-82
2022/07/25 07:33:55;;;;;;;15.48;8.35;;;25.30;93.40;;;;;;4668325;30;20411;-84
2022/07/25 07:36:21;;;;;;;20.38;8.88;;;25.40;93.40;;;;;;4668279;30;20027;-85
2022/07/25 07:38:47;;;;;;;11.68;7.28;;;25.40;93.50;;;;;;4666873;30;20042;-82
2022/07/25 07:41:14;;;;;;;15.07;9.10;;;25.60;93.20;;;;;;4668228;30;20232;-85
2022/07/25 07:43:40;;;;;;;12.55;7.82;;;25.30;92.70;;;;;;4668244;30;20033;-83
2022/07/25 07:46:06;;;;;;;15.50;8.35;;;25.80;92.70;;;;;;4666536;30;20042;-82
2022/07/25 07:48:33;;;;;;;14.10;7.60;;;25.90;92.40;;;;;;4668303;30;20045;-82
2022/07/25 07:51:00;;;;;;;14.50;9.18;;;26.10;92.30;;;;;;4668217;30;20038;-83
2022/07/25 07:55:42;;;;;;;16.48;8.65;;;26.20;92.10;;;;;;4666672;30;20042;-82
2022/07/25 07:56:13;;;;;;;20.00;8.30;;;26.20;92.10;;;;;;4667782;30;20038;-84
2022/07/25 07:58:39;;;;;;;12.60;8.30;;;26.40;91.70;;;;;;4666611;30;20474;-83
2022/07/25 08:01:05;;;;;;;14.93;7.38;;;26.60;91.20;;;;;;4667934;30;20030;-83
2022/07/25 08:03:31;;;;;;;16.00;7.80;;;26.80;91.20;;;;;;4667871;30;20038;-84
2022/07/25 08:05:57;;;;;;;13.55;7.97;;;27.00;90.70;;;;;;4667820;30;20514;-82
2022/07/25 08:08:22;;;;;;;17.27;9.07;;;27.00;90.50;;;;;;4667452;30;20054;-82
2022/07/25 08:10:48;;;;;;;14.13;8.15;;;27.10;90.30;;;;;;4667687;30;20115;-82
2022/07/25 08:13:26;;;;;;;14.88;8.75;;;27.10;90.20;;;;;;4666301;30;20038;-83
2022/07/25 08:15:56;;;;;;;13.05;7.85;;;27.00;90.30;;;;;;4667841;30;20034;-81
2022/07/25 08:18:23;;;;;;;12.38;7.97;;;27.10;90.10;;;;;;4667880;30;20553;-81
2022/07/25 08:20:50;;;;;;;13.63;8.70;;;27.30;90.20;;;;;;4668080;30;20101;-82
2022/07/25 08:23:17;;;;;;;12.25;7.63;;;27.50;89.40;;;;;;4667527;30;20064;-82
2022/07/25 08:25:43;;;;;;;12.65;7.32;;;27.70;88.00;;;;;;4667818;30;20683;-82
2022/07/25 08:28:09;;;;;;;13.23;8.20;;;27.90;87.00;;;;;;4667754;30;20050;-81
2022/07/25 08:30:36;;;;;;;12.75;7.55;;;27.80;87.50;;;;;;4667288;30;20503;-84
2022/07/25 08:33:04;;;;;;;13.07;7.65;;;28.10;85.50;;;;;;4667939;30;20195;-83
2022/07/25 08:35:31;;;;;;;15.57;8.40;;;28.10;85.90;;;;;;4668015;30;20034;-83
2022/07/25 08:37:58;;;;;;;14.38;8.27;;;28.30;84.90;;;;;;4668327;30;20042;-83
2022/07/25 08:40:27;;;;;;;12.07;7.30;;;28.70;84.30;;;;;;4671670;30;20447;-83
2022/07/25 08:42:54;;;;;;;15.77;8.45;;;28.60;83.20;;;;;;4671455;30;20369;-82
2022/07/25 08:45:20;;;;;;;14.32;8.20;;;28.90;81.90;;;;;;4669964;30;20034;-81
2022/07/25 08:47:48;;;;;;;16.17;7.80;;;29.00;81.00;;;;;;4670907;30;20050;-80
2022/07/25 08:50:20;;;;;;;13.00;8.13;;;28.80;80.60;;;;;;4670907;30;20038;-81
2022/07/25 08:52:48;;;;;;;14.02;8.75;;;29.00;79.20;;;;;;4671360;30;20066;-81
2022/07/25 08:55:18;;;;;;;13.20;7.65;;;28.90;79.80;;;;;;4670834;30;20110;-81
2022/07/25 08:57:46;;;;;;;10.23;7.05;;;29.00;79.90;;;;;;4670879;30;20087;-81
2022/07/25 09:00:15;;;;;;;14.35;8.27;;;29.00;78.50;;;;;;4670530;30;20034;-81
2022/07/25 09:02:41;;;;;;;13.45;7.82;;;29.20;77.50;;;;;;4669115;30;20042;-82
2022/07/25 09:05:08;;;;;;;13.50;7.85;;;29.40;76.60;;;;;;4670892;30;20049;-83
2022/07/25 09:07:39;;;;;;;12.80;7.60;;;29.60;76.10;;;;;;4669077;30;20355;-81
2022/07/25 09:10:21;;;;;;;12.27;7.20;;;29.70;75.30;;;;;;4670168;30;20133;-81
2022/07/25 09:12:59;;;;;;;11.20;7.13;;;29.60;74.20;;;;;;4674961;30;20608;-80
2022/07/25 09:15:30;;;;;;;17.92;8.48;;;29.90;73.50;;;;;;4674574;30;20276;-81
2022/07/25 09:18:07;;;;;;;13.02;7.82;;;30.20;72.60;;;;;;4675419;30;20294;-81
2022/07/25 09:20:48;;;;;;;14.10;7.07;;;30.10;71.30;;;;;;4671575;30;20057;-82
2022/07/25 09:23:30;;;;;;;11.45;6.95;;;29.90;71.10;;;;;;4671345;30;20038;-82
2022/07/25 09:26:10;;;;;;;12.05;7.28;;;30.10;70.40;;;;;;4671074;30;20046;-83
2022/07/25 09:28:57;;;;;;;12.00;7.70;;;30.60;68.80;;;;;;4670374;30;20060;-81
2022/07/25 09:31:31;;;;;;;12.60;7.57;;;30.80;69.30;;;;;;4669911;30;20084;-82
2022/07/25 09:33:59;;;;;;;14.27;7.18;;;31.00;68.50;;;;;;4668955;30;20057;-82
2022/07/25 09:36:25;;;;;;;11.90;6.90;;;31.40;66.20;;;;;;4670095;30;20347;-83
2022/07/25 09:39:00;;;;;;;11.80;6.90;;;31.30;65.70;;;;;;4670186;30;20088;-81
2022/07/25 09:41:36;;;;;;;10.35;6.22;;;31.30;62.80;;;;;;4670112;30;20046;-83
2022/07/25 09:44:03;;;;;;;12.48;6.50;;;31.70;63.10;;;;;;4668992;30;20491;-81
2022/07/25 09:46:30;;;;;;;10.73;6.43;;;31.50;61.50;;;;;;4669892;30;20463;-82
2022/07/25 09:48:58;;;;;;;11.63;6.45;;;31.40;61.20;;;;;;4670232;30;20037;-82
2022/07/25 09:51:25;;;;;;;11.18;6.40;;;31.60;61.10;;;;;;4669554;30;20038;-82
2022/07/25 09:53:51;;;;;;;10.38;6.43;;;31.80;60.20;;;;;;4669888;30;20080;-81
2022/07/25 09:56:17;;;;;;;11.65;5.93;;;31.80;59.10;;;;;;4669919;30;20066;-82
2022/07/25 09:58:43;;;;;;;10.65;5.75;;;31.90;58.80;;;;;;4669754;30;20050;-82
2022/07/25 10:01:11;;;;;;;12.02;6.93;;;32.10;59.50;;;;;;4669800;30;20059;-82
2022/07/25 10:03:52;;;;;;;10.27;6.20;;;32.20;59.70;;;;;;4669623;30;20042;-82
2022/07/25 10:07:08;;;;;;;9.75;6.05;;;32.50;58.10;;;;;;4669543;30;20117;-82
2022/07/25 10:09:44;;;;;;;11.70;7.03;;;32.50;57.10;;;;;;4615233;30;20103;-82
2022/07/25 10:12:13;;;;;;;10.30;6.65;;;32.00;56.80;;;;;;4615907;31;20449;-83
2022/07/25 10:14:40;;;;;;;11.88;7.28;;;32.80;58.50;;;;;;4615579;31;20107;-81
2022/07/25 10:17:06;;;;;;;10.90;6.55;;;33.90;59.20;;;;;;4615670;30;20122;-82
2022/07/25 10:19:46;;;;;;;10.45;6.68;;;32.30;58.10;;;;;;4615842;31;20118;-81
2022/07/25 10:22:13;;;;;;;11.57;7.13;;;32.50;58.30;;;;;;4615786;31;20045;-82
2022/07/25 10:24:46;;;;;;;10.23;6.40;;;32.40;57.60;;;;;;4617708;31;20043;-82
2022/07/25 10:27:21;;;;;;;10.90;6.95;;;32.40;57.70;;;;;;4602806;31;20139;-81
2022/07/25 10:29:52;;;;;;;12.27;6.53;;;32.40;58.30;;;;;;4602815;31;20309;-82
2022/07/25 10:32:19;;;;;;;10.38;6.40;;;32.60;57.60;;;;;;4616778;30;20378;-82
2022/07/25 10:34:52;;;;;;;14.45;6.28;;;32.60;56.80;;;;;;4615533;30;20047;-82
2022/07/25 10:37:26;;;;;;;13.80;6.38;;;32.40;56.40;;;;;;4615541;30;20039;-81
2022/07/25 10:39:52;;;;;;;11.70;6.57;;;32.40;55.80;;;;;;4615203;31;20051;-82
2022/07/25 10:42:20;;;;;;;9.93;5.88;;;32.60;56.80;;;;;;4615419;31;20044;-82
2022/07/25 10:44:49;;;;;;;10.93;6.50;;;32.70;55.90;;;;;;4639377;30;20042;-82
2022/07/25 10:47:16;;;;;;;11.98;6.28;;;32.90;55.40;;;;;;4668951;30;20042;-83
2022/07/25 10:49:48;;;;;;;11.70;6.20;;;32.90;55.30;;;;;;4669268;30;20197;-82
2022/07/25 10:52:18;;;;;;;9.88;5.78;;;32.40;54.10;;;;;;4669299;30;20230;-81
2022/07/25 10:55:02;;;;;;;10.05;5.40;;;32.90;54.60;;;;;;4667515;30;20050;-82
2022/07/25 10:57:28;;;;;;;10.98;5.78;;;32.90;54.10;;;;;;4669393;30;20628;-83
2022/07/25 11:00:07;;;;;;;10.98;6.13;;;33.00;53.50;;;;;;4667862;30;20050;-83
2022/07/25 11:02:32;;;;;;;9.85;5.40;;;33.10;53.70;;;;;;4673073;30;20041;-83
2022/07/25 11:05:03;;;;;;;10.05;5.50;;;33.10;54.00;;;;;;4673104;30;20038;-84
2022/07/25 11:07:34;;;;;;;12.48;5.93;;;33.10;52.40;;;;;;4672860;30;20754;-83
2022/07/25 11:10:03;;;;;;;11.45;6.60;;;33.10;52.30;;;;;;4671862;30;20153;-83
2022/07/25 11:12:30;;;;;;;10.35;6.20;;;33.10;52.50;;;;;;4667922;30;20125;-80
2022/07/25 11:15:03;;;;;;;10.52;5.13;;;33.30;51.70;;;;;;4669522;30;20041;-83
2022/07/25 11:17:29;;;;;;;9.18;5.45;;;33.50;50.90;;;;;;4668818;30;20073;-82
2022/07/25 11:19:56;;;;;;;8.95;5.30;;;33.60;51.60;;;;;;4667341;30;20036;-81
2022/07/25 11:22:25;;;;;;;9.80;5.78;;;35.20;52.90;;;;;;4668832;30;20045;-82
2022/07/25 11:24:51;;;;;;;8.32;4.85;;;33.80;50.40;;;;;;4666819;30;20084;-81
2022/07/25 11:27:22;;;;;;;9.35;5.10;;;34.30;50.60;;;;;;4668454;30;20535;-80
2022/07/25 11:29:49;;;;;;;10.25;5.57;;;32.60;49.50;;;;;;4667074;30;20042;-81
2022/07/25 11:32:15;;;;;;;8.55;5.53;;;34.50;50.10;;;;;;4666667;30;20136;-81
2022/07/25 11:34:51;;;;;;;8.68;5.22;;;34.20;49.90;;;;;;4668323;30;20314;-84
2022/07/25 11:37:18;;;;;;;9.65;5.35;;;33.30;49.10;;;;;;4668303;30;20361;-81
2022/07/25 11:39:46;;;;;;;10.18;5.40;;;34.70;49.60;;;;;;4668038;30;20118;-83
2022/07/25 11:42:17;;;;;;;8.30;5.15;;;34.80;48.70;;;;;;4667979;30;20052;-81
2022/07/25 11:44:44;;;;;;;8.90;5.25;;;34.60;48.60;;;;;;4668121;30;20133;-81
2022/07/25 11:47:32;;;;;;;8.82;4.78;;;35.70;48.60;;;;;;4667749;30;20042;-82
2022/07/25 11:50:03;;;;;;;8.90;5.20;;;36.10;47.00;;;;;;4666730;30;20066;-81
2022/07/25 11:52:32;;;;;;;7.65;4.72;;;36.40;47.00;;;;;;4666562;30;20033;-81
2022/07/25 11:55:07;;;;;;;8.57;4.65;;;36.50;47.10;;;;;;4668000;30;20050;-81
2022/07/25 11:57:36;;;;;;;6.90;4.07;;;36.50;46.50;;;;;;4667651;30;20059;-81
2022/07/25 12:00:07;;;;;;;9.30;5.13;;;36.60;46.10;;;;;;4667699;30;20558;-81
2022/07/25 12:02:36;;;;;;;7.47;4.95;;;36.20;46.30;;;;;;4666353;30;20106;-82
2022/07/25 12:05:06;;;;;;;7.88;5.22;;;36.70;45.80;;;;;;4667824;30;20708;-81
2022/07/25 12:07:35;;;;;;;8.00;5.15;;;36.70;45.70;;;;;;4666547;30;20054;-81
2022/07/25 12:10:00;;;;;;;8.05;4.82;;;36.80;45.60;;;;;;4666270;30;20066;-82
2022/07/25 12:12:26;;;;;;;8.88;5.03;;;36.80;45.70;;;;;;4667488;30;20038;-81
2022/07/25 12:14:52;;;;;;;8.68;4.80;;;37.10;45.10;;;;;;4667844;30;20038;-81
2022/07/25 12:17:18;;;;;;;6.97;4.05;;;37.20;44.60;;;;;;4667761;30;20073;-81
2022/07/25 12:19:46;;;;;;;9.73;4.68;;;37.70;44.30;;;;;;4667719;30;20041;-82
2022/07/25 12:22:12;;;;;;;8.52;5.63;;;37.80;45.00;;;;;;4667767;30;20026;-81
2022/07/25 12:24:38;;;;;;;7.70;4.35;;;38.20;44.30;;;;;;4666014;30;20078;-82
2022/07/25 12:27:04;;;;;;;8.18;4.93;;;38.90;43.50;;;;;;4667649;30;20073;-82
2022/07/25 12:29:30;;;;;;;8.10;4.90;;;39.40;42.80;;;;;;4667497;30;20050;-80
2022/07/25 12:31:56;;;;;;;7.20;4.38;;;39.90;43.60;;;;;;4666380;30;20034;-81
2022/07/25 12:34:21;;;;;;;8.18;5.18;;;40.00;42.70;;;;;;4667955;30;20042;-80
2022/07/25 12:36:47;;;;;;;8.68;4.85;;;39.00;41.30;;;;;;4667769;30;20046;-81
2022/07/25 12:39:13;;;;;;;8.82;4.40;;;40.80;41.30;;;;;;4667078;30;20034;-81
2022/07/25 12:41:41;;;;;;;7.75;4.43;;;40.70;41.30;;;;;;4667885;30;20474;-83